createdAt,value
2019-06-08T00:02:01.043Z,13.07
2019-06-08T00:04:31.091Z,12.17
2019-06-08T00:07:01.115Z,13.63
2019-06-08T00:09:31.126Z,13.80
2019-06-08T00:12:01.116Z,13.17
2019-06-08T00:14:31.085Z,13.47
2019-06-08T00:17:01.111Z,15.53
2019-06-08T00:19:31.130Z,14.50
2019-06-08T00:22:01.045Z,14.63
2019-06-08T00:24:31.211Z,14.17
2019-06-08T00:27:01.188Z,15.17
2019-06-08T00:29:31.116Z,15.70
2019-06-08T00:32:01.062Z,13.90
2019-06-08T00:34:31.120Z,13.53
2019-06-08T00:37:01.084Z,13.73
2019-06-08T00:39:31.096Z,14.37
2019-06-08T00:42:01.185Z,13.67
2019-06-08T00:44:31.275Z,13.40
2019-06-08T00:47:01.259Z,12.80
2019-06-08T00:49:31.597Z,13.77
2019-06-08T00:52:01.513Z,14.27
2019-06-08T00:54:31.553Z,13.03
2019-06-08T00:57:01.542Z,13.50
2019-06-08T00:59:31.635Z,14.43
2019-06-08T01:02:01.780Z,15.03
2019-06-08T01:04:31.728Z,14.83
2019-06-08T01:07:01.741Z,13.83
2019-06-08T01:09:31.676Z,14.03
2019-06-08T01:12:01.694Z,14.67
2019-06-08T01:14:31.765Z,14.23
2019-06-08T01:17:01.787Z,13.97
2019-06-08T01:19:31.842Z,13.53
2019-06-08T01:22:01.860Z,13.37
2019-06-08T01:24:31.864Z,12.30
2019-06-08T01:27:01.963Z,11.10
2019-06-08T01:29:31.982Z,10.97
2019-06-08T01:32:02.020Z,11.33
2019-06-08T01:34:32.012Z,10.93
2019-06-08T01:37:02.061Z,10.83
2019-06-08T01:39:32.514Z,11.50
2019-06-08T01:42:02.648Z,10.57
2019-06-08T01:44:33.703Z,10.30
2019-06-08T01:47:03.777Z,9.80
2019-06-08T01:49:33.692Z,10.37
2019-06-08T01:52:24.402Z,9.20
2019-06-08T01:54:54.521Z,9.07
2019-06-08T01:57:25.238Z,10.03
2019-06-08T01:59:55.266Z,8.73
2019-06-08T02:02:25.893Z,8.67
2019-06-08T02:04:55.984Z,9.13
2019-06-08T02:07:26.365Z,9.50
2019-06-08T02:09:56.402Z,8.77
2019-06-08T02:12:26.710Z,9.60
2019-06-08T02:14:56.817Z,9.27
2019-06-08T02:17:27.322Z,9.53
2019-06-08T02:19:57.491Z,8.90
2019-06-08T02:22:28.784Z,9.40
2019-06-08T02:24:58.777Z,8.83
2019-06-08T02:27:29.275Z,9.10
2019-06-08T02:29:59.427Z,10.37
2019-06-08T02:32:31.603Z,9.03
2019-06-08T02:35:01.633Z,9.27
2019-06-08T02:37:33.120Z,9.83
2019-06-08T02:40:05.305Z,10.30
2019-06-08T02:42:37.866Z,10.53
2019-06-08T02:45:08.613Z,9.53
2019-06-08T02:47:40.878Z,9.43
2019-06-08T02:50:10.654Z,9.00
2019-06-08T02:52:43.526Z,9.23
2019-06-08T02:55:13.674Z,9.70
2019-06-08T02:57:45.353Z,8.87
2019-06-08T03:00:15.893Z,9.03
2019-06-08T03:02:47.676Z,8.63
2019-06-08T03:05:19.370Z,8.30
2019-06-08T03:07:51.650Z,7.83
2019-06-08T03:10:21.709Z,7.73
2019-06-08T03:12:54.552Z,7.73
2019-06-08T03:15:32.384Z,8.33
2019-06-08T03:18:02.748Z,6.93
2019-06-08T03:20:33.445Z,7.77
2019-06-08T03:23:04.964Z,6.93
2019-06-08T03:25:42.081Z,7.10
2019-06-08T03:28:06.533Z,7.60
2019-06-08T03:30:44.478Z,6.90
2019-06-08T03:33:08.138Z,7.13
2019-06-08T03:35:43.985Z,7.27
2019-06-08T03:38:09.819Z,7.77
2019-06-08T03:40:40.586Z,7.90
2019-06-08T03:43:11.475Z,7.40
2019-06-08T03:45:43.037Z,7.20
2019-06-08T03:48:13.150Z,7.40
2019-06-08T03:50:44.498Z,7.67
2019-06-08T03:53:14.883Z,6.97
2019-06-08T03:55:47.034Z,7.37
2019-06-08T03:58:16.536Z,7.63
2019-06-08T04:00:47.122Z,7.73
2019-06-08T04:03:18.238Z,7.13
2019-06-08T04:05:49.995Z,7.53
2019-06-08T04:08:19.820Z,6.97
2019-06-08T04:10:50.316Z,6.97
2019-06-08T04:13:20.368Z,7.07
2019-06-08T04:15:50.454Z,7.50
2019-06-08T04:18:20.371Z,8.40
2019-06-08T04:20:51.621Z,8.03
2019-06-08T04:23:21.740Z,7.87
2019-06-08T04:25:51.739Z,7.90
2019-06-08T04:28:21.721Z,8.33
2019-06-08T04:30:51.672Z,7.10
2019-06-08T04:33:21.666Z,7.63
2019-06-08T04:35:51.680Z,7.10
2019-06-08T04:38:21.683Z,7.30
2019-06-08T04:40:51.692Z,6.93
2019-06-08T04:43:21.771Z,7.30
2019-06-08T04:45:51.947Z,6.90
2019-06-08T04:48:21.976Z,6.60
2019-06-08T04:50:52.044Z,7.23
2019-06-08T04:53:22.132Z,7.60
2019-06-08T04:55:52.121Z,7.20
2019-06-08T04:58:22.074Z,7.27
2019-06-08T05:00:52.074Z,7.80
2019-06-08T05:03:22.104Z,7.30
2019-06-08T05:05:52.151Z,7.27
2019-06-08T05:08:22.150Z,6.67
2019-06-08T05:10:52.131Z,6.63
2019-06-08T05:13:22.068Z,7.57
2019-06-08T05:15:52.047Z,7.50
2019-06-08T05:18:25.230Z,7.77
2019-06-08T05:20:53.635Z,7.70
2019-06-08T05:23:23.611Z,9.38
2019-06-08T05:25:53.618Z,8.80
2019-06-08T05:28:23.705Z,8.43
2019-06-08T05:30:53.697Z,9.00
2019-06-08T05:33:23.698Z,9.50
2019-06-08T05:35:53.739Z,9.37
2019-06-08T05:38:23.766Z,10.43
2019-06-08T05:40:53.781Z,10.73
2019-06-08T05:43:23.693Z,13.03
2019-06-08T05:45:53.662Z,10.23
2019-06-08T05:48:23.669Z,10.57
2019-06-08T05:51:03.022Z,9.97
2019-06-08T05:53:25.376Z,10.17
2019-06-08T05:55:55.325Z,10.23
2019-06-08T05:58:25.235Z,10.20
2019-06-08T06:00:55.179Z,10.63
2019-06-08T06:03:26.173Z,10.17
2019-06-08T06:05:56.132Z,10.63
2019-06-08T06:08:26.129Z,11.13
2019-06-08T06:10:56.149Z,10.37
2019-06-08T06:13:26.134Z,12.93
2019-06-08T06:15:57.473Z,11.87
2019-06-08T06:18:27.559Z,12.33
2019-06-08T06:21:10.570Z,13.13
2019-06-08T06:23:29.295Z,14.17
2019-06-08T06:25:59.334Z,12.97
2019-06-08T06:28:29.330Z,13.90
2019-06-08T06:30:59.470Z,14.55
2019-06-08T06:33:29.544Z,12.90
2019-06-08T06:35:59.622Z,15.32
2019-06-08T06:38:29.628Z,14.95
2019-06-08T06:40:59.678Z,13.83
2019-06-08T06:43:31.198Z,14.57
2019-06-08T06:46:02.872Z,14.55
2019-06-08T06:48:32.839Z,16.10
2019-06-08T06:51:02.968Z,15.70
2019-06-08T06:53:35.161Z,13.77
2019-06-08T06:56:05.298Z,14.30
2019-06-08T06:58:36.390Z,14.07
2019-06-08T07:01:06.342Z,14.60
2019-06-08T07:03:36.384Z,15.15
2019-06-08T07:06:06.463Z,15.47
2019-06-08T07:08:36.536Z,14.25
2019-06-08T07:11:06.516Z,15.80
2019-06-08T07:13:36.546Z,15.23
2019-06-08T07:16:18.085Z,15.18
2019-06-08T07:18:38.386Z,15.20
2019-06-08T07:21:08.415Z,13.53
2019-06-08T07:23:38.416Z,14.07
2019-06-08T07:26:08.342Z,14.07
2019-06-08T07:28:38.414Z,13.40
2019-06-08T07:31:08.351Z,14.60
2019-06-08T07:33:38.412Z,14.07
2019-06-08T07:36:08.391Z,14.20
2019-06-08T07:38:38.379Z,14.30
2019-06-08T07:41:08.375Z,13.00
2019-06-08T07:43:38.291Z,14.10
2019-06-08T07:46:08.318Z,13.03
2019-06-08T07:48:38.402Z,11.45
2019-06-08T07:51:08.523Z,11.93
2019-06-08T07:53:39.189Z,13.40
2019-06-08T07:56:09.298Z,12.70
2019-06-08T07:58:39.285Z,13.80
2019-06-08T08:01:09.365Z,13.73
2019-06-08T08:03:39.290Z,13.17
2019-06-08T08:06:10.480Z,13.55
2019-06-08T08:08:40.469Z,13.40
2019-06-08T08:11:10.418Z,12.67
2019-06-08T08:13:40.531Z,13.30
2019-06-08T08:16:10.614Z,13.73
2019-06-08T08:18:41.811Z,14.80
2019-06-08T08:21:21.327Z,13.00
2019-06-08T08:23:43.556Z,12.80
2019-06-08T08:26:13.676Z,14.07
2019-06-08T08:28:43.723Z,14.20
2019-06-08T08:31:15.320Z,14.97
2019-06-08T08:33:45.461Z,14.40
2019-06-08T08:36:15.492Z,15.00
2019-06-08T08:38:47.704Z,14.87
2019-06-08T08:41:18.149Z,14.60
2019-06-08T08:43:50.155Z,14.93
2019-06-08T08:46:20.147Z,14.07
2019-06-08T08:48:51.380Z,13.10
2019-06-08T08:51:21.863Z,13.72
2019-06-08T08:53:55.815Z,13.80
2019-06-08T08:56:23.562Z,14.30
2019-06-08T08:58:54.399Z,14.93
2019-06-08T09:01:24.673Z,15.03
2019-06-08T09:03:57.133Z,16.63
2019-06-08T09:06:28.041Z,16.93
2019-06-08T09:09:00.820Z,16.55
2019-06-08T09:11:30.049Z,18.00
2019-06-08T09:14:05.252Z,15.65
2019-06-08T09:16:31.763Z,16.23
2019-06-08T09:19:04.268Z,14.58
2019-06-08T09:21:33.427Z,13.58
2019-06-08T09:24:04.030Z,14.98
2019-06-08T09:26:34.561Z,13.55
2019-06-08T09:29:08.293Z,14.45
2019-06-08T09:31:38.934Z,12.95
2019-06-08T09:34:12.148Z,12.75
2019-06-08T09:36:40.746Z,10.95
2019-06-08T09:39:12.990Z,11.38
2019-06-08T09:41:42.598Z,13.28
2019-06-08T09:44:12.797Z,14.03
2019-06-08T09:46:42.987Z,14.00
2019-06-08T09:49:13.044Z,13.62
2019-06-08T09:51:43.058Z,12.80
2019-06-08T09:54:13.246Z,12.13
2019-06-08T09:56:47.690Z,10.40
2019-06-08T09:59:18.557Z,10.45
2019-06-08T10:01:48.501Z,10.58
2019-06-08T10:04:18.562Z,12.05
2019-06-08T10:06:48.574Z,11.83
2019-06-08T10:09:18.773Z,14.30
2019-06-08T10:11:48.983Z,13.32
2019-06-08T10:14:19.064Z,13.98
2019-06-08T10:16:49.070Z,14.20
2019-06-08T10:19:19.164Z,12.20
2019-06-08T10:21:49.160Z,12.05
2019-06-08T10:24:19.333Z,15.48
2019-06-08T10:26:49.340Z,12.85
2019-06-08T10:29:19.436Z,10.60
2019-06-08T10:31:50.663Z,11.20
2019-06-08T10:34:20.816Z,12.45
2019-06-08T10:36:50.912Z,13.90
2019-06-08T10:39:20.933Z,13.05
2019-06-08T10:41:51.629Z,13.03
2019-06-08T10:44:22.011Z,11.90
2019-06-08T10:46:52.072Z,11.70
2019-06-08T10:49:22.067Z,13.40
2019-06-08T10:51:52.302Z,13.00
2019-06-08T10:54:22.305Z,11.20
2019-06-08T10:56:52.466Z,12.33
2019-06-08T10:59:22.456Z,12.15
2019-06-08T11:01:52.468Z,13.38
2019-06-08T11:04:22.669Z,11.43
2019-06-08T11:06:52.788Z,12.00
2019-06-08T11:09:22.879Z,10.60
2019-06-08T11:11:52.806Z,11.55
2019-06-08T11:14:23.110Z,10.08
2019-06-08T11:16:54.218Z,11.10
2019-06-08T11:19:26.408Z,10.90
2019-06-08T11:21:58.047Z,11.15
2019-06-08T11:24:29.061Z,12.68
2019-06-08T11:27:00.026Z,12.03
2019-06-08T11:29:31.152Z,9.90
2019-06-08T11:32:02.069Z,10.48
2019-06-08T11:34:32.234Z,10.32
2019-06-08T11:37:03.641Z,11.22
2019-06-08T11:39:34.004Z,10.68
2019-06-08T11:42:07.046Z,10.55
2019-06-08T11:44:38.778Z,10.03
2019-06-08T11:47:11.300Z,10.45
2019-06-08T11:49:40.024Z,10.48
2019-06-08T11:52:11.255Z,9.93
2019-06-08T11:54:41.388Z,9.55
2019-06-08T11:57:12.935Z,8.05
2019-06-08T11:59:43.118Z,9.33
2019-06-08T12:02:14.218Z,8.75
2019-06-08T12:04:44.478Z,9.75
2019-06-08T12:07:14.384Z,8.33
2019-06-08T12:09:44.420Z,8.13
2019-06-08T12:12:18.625Z,8.60
2019-06-08T12:14:47.575Z,8.15
2019-06-08T12:17:22.223Z,7.95
2019-06-08T12:19:49.367Z,9.33
2019-06-08T12:22:21.775Z,8.55
2019-06-08T12:24:51.014Z,8.50
2019-06-08T12:27:29.803Z,8.85
2019-06-08T12:29:52.823Z,9.43
2019-06-08T12:32:22.832Z,9.23
2019-06-08T12:34:52.782Z,8.05
2019-06-08T12:37:22.995Z,9.48
2019-06-08T12:39:53.012Z,8.50
2019-06-08T12:42:25.069Z,7.70
2019-06-08T12:44:54.583Z,8.80
2019-06-08T12:47:26.659Z,8.55
2019-06-08T12:49:58.276Z,8.95
2019-06-08T12:52:29.814Z,8.20
2019-06-08T12:55:06.330Z,8.43
2019-06-08T12:57:31.160Z,7.75
2019-06-08T13:00:01.341Z,7.90
2019-06-08T13:02:31.377Z,7.75
2019-06-08T13:05:01.392Z,7.92
2019-06-08T13:07:31.377Z,8.05
2019-06-08T13:10:01.549Z,8.53
2019-06-08T13:12:31.534Z,7.97
2019-06-08T13:15:01.558Z,8.43
2019-06-08T13:17:31.552Z,8.00
2019-06-08T13:20:01.556Z,8.23
2019-06-08T13:22:31.617Z,7.97
2019-06-08T13:25:15.812Z,7.78
2019-06-08T13:27:33.255Z,8.75
2019-06-08T13:30:03.357Z,8.80
2019-06-08T13:32:33.338Z,8.15
2019-06-08T13:35:05.136Z,8.53
2019-06-08T13:37:35.222Z,8.68
2019-06-08T13:40:08.145Z,8.53
2019-06-08T13:42:38.495Z,8.85
2019-06-08T13:45:10.060Z,9.68
2019-06-08T13:47:41.383Z,9.80
2019-06-08T13:50:14.527Z,8.40
2019-06-08T13:52:44.682Z,8.50
2019-06-08T13:55:34.359Z,8.90
2019-06-08T13:57:48.931Z,8.45
2019-06-08T14:00:22.130Z,9.25
2019-06-08T14:02:51.653Z,9.38
2019-06-08T14:05:28.469Z,8.28
2019-06-08T14:07:58.964Z,8.95
2019-06-08T14:10:40.119Z,8.88
2019-06-08T14:13:10.415Z,8.75
2019-06-08T14:15:40.460Z,8.88
2019-06-08T14:18:10.487Z,9.30
2019-06-08T14:20:40.461Z,9.13
2019-06-08T14:23:10.405Z,8.38
2019-06-08T14:25:50.522Z,9.08
2019-06-08T14:28:12.172Z,8.15
2019-06-08T14:30:42.160Z,9.90
2019-06-08T14:33:12.108Z,8.48
2019-06-08T14:35:42.027Z,8.90
2019-06-08T14:38:12.090Z,8.13
2019-06-08T14:40:41.990Z,8.60
2019-06-08T14:43:11.979Z,10.00
2019-06-08T14:45:42.016Z,8.68
2019-06-08T14:48:12.036Z,8.90
2019-06-08T14:50:42.131Z,8.50
2019-06-08T14:53:12.260Z,7.97
2019-06-08T14:55:42.274Z,7.85
2019-06-08T14:58:12.281Z,7.70
2019-06-08T15:00:42.381Z,7.85
2019-06-08T15:03:12.373Z,8.55
2019-06-08T15:05:42.370Z,7.67
2019-06-08T15:08:12.533Z,7.78
2019-06-08T15:10:42.564Z,7.42
2019-06-08T15:13:13.794Z,7.40
2019-06-08T15:15:44.203Z,7.20
2019-06-08T15:18:14.197Z,7.72
2019-06-08T15:20:44.210Z,8.45
2019-06-08T15:23:16.890Z,7.28
2019-06-08T15:25:45.933Z,8.50
2019-06-08T15:28:18.111Z,7.78
2019-06-08T15:30:47.649Z,8.48
2019-06-08T15:33:18.117Z,8.20
2019-06-08T15:35:49.351Z,7.72
2019-06-08T15:38:20.818Z,8.50
2019-06-08T15:40:50.974Z,7.28
2019-06-08T15:43:21.781Z,7.35
2019-06-08T15:45:53.041Z,8.25
2019-06-08T15:48:24.074Z,7.53
2019-06-08T15:50:54.210Z,8.20
2019-06-08T15:53:24.414Z,8.00
2019-06-08T15:55:54.424Z,7.50
2019-06-08T15:58:24.806Z,7.65
2019-06-08T16:00:55.654Z,7.78
2019-06-08T16:03:27.358Z,8.05
2019-06-08T16:05:57.486Z,7.60
2019-06-08T16:08:27.839Z,7.30
2019-06-08T16:10:58.162Z,7.33
2019-06-08T16:13:28.509Z,6.95
2019-06-08T16:15:58.541Z,7.05
2019-06-08T16:18:29.351Z,8.33
2019-06-08T16:20:59.505Z,7.78
2019-06-08T16:23:29.863Z,7.70
2019-06-08T16:26:00.185Z,7.05
2019-06-08T16:28:32.070Z,7.62
2019-06-08T16:31:05.388Z,7.78
2019-06-08T16:33:35.123Z,8.68
2019-06-08T16:36:05.536Z,8.10
2019-06-08T16:38:36.343Z,8.00
2019-06-08T16:41:06.526Z,7.92
2019-06-08T16:43:36.512Z,7.60
2019-06-08T16:46:06.447Z,8.48
2019-06-08T16:48:39.417Z,8.18
2019-06-08T16:51:08.785Z,7.80
2019-06-08T16:53:40.059Z,8.65
2019-06-08T16:56:10.315Z,7.53
2019-06-08T16:58:40.362Z,7.58
2019-06-08T17:01:10.347Z,8.28
2019-06-08T17:03:40.431Z,4.37
2019-06-08T17:06:10.378Z,4.85
2019-06-08T17:08:42.082Z,4.10
2019-06-08T17:11:12.008Z,4.72
2019-06-08T17:13:42.054Z,4.12
2019-06-08T17:16:12.264Z,4.33
2019-06-08T17:18:42.266Z,5.95
2019-06-08T17:21:12.457Z,4.95
2019-06-08T17:23:42.505Z,4.22
2019-06-08T17:26:12.608Z,4.20
2019-06-08T17:28:42.785Z,3.65
2019-06-08T17:31:12.860Z,4.25
2019-06-08T17:33:44.461Z,4.10
2019-06-08T17:36:14.513Z,4.78
2019-06-08T17:38:44.715Z,4.47
2019-06-08T17:41:14.680Z,4.10
2019-06-08T17:43:44.738Z,3.85
2019-06-08T17:46:14.768Z,4.08
2019-06-08T17:48:44.819Z,3.65
2019-06-08T17:51:14.843Z,4.30
2019-06-08T17:53:44.862Z,5.28
2019-06-08T17:56:14.998Z,4.00
2019-06-08T17:58:44.971Z,4.42
2019-06-08T18:01:14.998Z,4.50
2019-06-08T18:03:44.991Z,4.30
2019-06-08T18:06:15.035Z,4.60
2019-06-08T18:08:47.435Z,4.05
2019-06-08T18:11:17.356Z,4.40
2019-06-08T18:13:48.374Z,4.35
2019-06-08T18:16:19.764Z,4.17
2019-06-08T18:18:49.837Z,3.77
2019-06-08T18:21:19.871Z,5.05
2019-06-08T18:23:49.933Z,3.98
2019-06-08T18:26:19.969Z,4.87
2019-06-08T18:28:50.035Z,3.60
2019-06-08T18:31:20.105Z,3.83
2019-06-08T18:33:50.558Z,4.17
2019-06-08T18:36:20.675Z,4.50
2019-06-08T18:38:50.902Z,4.08
2019-06-08T18:41:20.959Z,4.50
2019-06-08T18:43:52.695Z,4.58
2019-06-08T18:46:24.318Z,4.13
2019-06-08T18:48:54.396Z,4.43
2019-06-08T18:51:24.360Z,4.45
2019-06-08T18:54:08.475Z,4.25
2019-06-08T18:56:27.579Z,3.70
2019-06-08T18:58:59.139Z,4.08
2019-06-08T19:01:30.354Z,4.10
2019-06-08T19:04:00.401Z,4.03
2019-06-08T19:06:30.624Z,3.90
2019-06-08T19:09:00.891Z,4.17
2019-06-08T19:11:32.420Z,4.25
2019-06-08T19:14:03.217Z,4.25
2019-06-08T19:16:33.251Z,3.80
2019-06-08T19:19:03.361Z,4.22
2019-06-08T19:21:33.430Z,4.20
2019-06-08T19:24:03.497Z,3.70
2019-06-08T19:26:33.511Z,3.60
2019-06-08T19:29:03.831Z,4.15
2019-06-08T19:31:34.526Z,3.97
2019-06-08T19:34:07.611Z,4.10
2019-06-08T19:36:39.972Z,4.60
2019-06-08T19:39:09.114Z,4.70
2019-06-08T19:41:40.025Z,4.20
2019-06-08T19:44:10.965Z,5.30
2019-06-08T19:46:40.875Z,3.90
2019-06-08T19:49:10.812Z,4.40
2019-06-08T19:51:41.488Z,4.67
2019-06-08T19:54:12.437Z,4.25
2019-06-08T19:56:43.292Z,3.55
2019-06-08T19:59:13.508Z,4.17
2019-06-08T20:01:43.638Z,3.97
2019-06-08T20:04:15.270Z,4.60
2019-06-08T20:06:47.556Z,4.10
2019-06-08T20:09:17.383Z,4.27
2019-06-08T20:11:54.151Z,4.33
2019-06-08T20:14:20.463Z,5.47
2019-06-08T20:16:50.923Z,4.65
2019-06-08T20:19:21.005Z,4.67
2019-06-08T20:21:53.449Z,4.50
2019-06-08T20:24:23.702Z,4.53
2019-06-08T20:26:54.809Z,4.33
2019-06-08T20:29:24.809Z,5.27
2019-06-08T20:31:57.527Z,5.10
2019-06-08T20:34:27.038Z,4.90
2019-06-08T20:37:01.177Z,4.30
2019-06-08T20:39:29.321Z,4.80
2019-06-08T20:41:59.334Z,8.50
2019-06-08T20:44:30.369Z,4.93
2019-06-08T20:47:00.446Z,4.37
2019-06-08T20:49:30.527Z,4.83
2019-06-08T20:52:00.626Z,5.03
2019-06-08T20:54:30.520Z,4.50
2019-06-08T20:57:00.463Z,4.50
2019-06-08T20:59:34.032Z,4.77
2019-06-08T21:02:02.206Z,4.85
2019-06-08T21:04:32.260Z,5.23
2019-06-08T21:07:02.366Z,5.35
2019-06-08T21:09:32.356Z,4.60
2019-06-08T21:12:02.386Z,5.20
2019-06-08T21:14:32.375Z,5.97
2019-06-08T21:17:02.495Z,7.07
2019-06-08T21:19:32.563Z,5.43
2019-06-08T21:22:02.633Z,4.93
2019-06-08T21:24:32.573Z,5.70
2019-06-08T21:27:02.808Z,5.62
2019-06-08T21:29:46.985Z,4.87
2019-06-08T21:32:04.560Z,5.27
2019-06-08T21:34:34.606Z,5.60
2019-06-08T21:37:05.157Z,5.13
2019-06-08T21:39:38.564Z,4.43
2019-06-08T21:42:07.883Z,5.23
2019-06-08T21:44:38.242Z,4.30
2019-06-08T21:47:08.183Z,4.17
2019-06-08T21:49:38.583Z,5.37
2019-06-08T21:52:08.702Z,4.37
2019-06-08T21:54:38.612Z,4.17
2019-06-08T21:57:09.672Z,4.67
2019-06-08T21:59:39.755Z,4.57
2019-06-08T22:02:12.387Z,4.40
2019-06-08T22:04:42.359Z,4.87
2019-06-08T22:07:12.314Z,4.63
2019-06-08T22:09:42.391Z,4.87
2019-06-08T22:12:12.463Z,5.00
2019-06-08T22:14:42.579Z,4.33
2019-06-08T22:17:15.725Z,4.50
2019-06-08T22:19:44.205Z,4.70
2019-06-08T22:22:14.171Z,4.50
2019-06-08T22:24:44.113Z,4.20
2019-06-08T22:27:14.036Z,4.80
2019-06-08T22:29:44.203Z,4.57
2019-06-08T22:32:14.182Z,4.33
2019-06-08T22:34:44.130Z,4.83
2019-06-08T22:37:14.143Z,4.20
2019-06-08T22:39:44.252Z,4.33
2019-06-08T22:42:14.357Z,4.63
2019-06-08T22:44:44.355Z,5.00
2019-06-08T22:47:14.370Z,4.77
2019-06-08T22:49:44.372Z,5.00
2019-06-08T22:52:14.398Z,4.70
2019-06-08T22:54:44.392Z,4.53
2019-06-08T22:57:14.391Z,5.07
2019-06-08T22:59:44.296Z,5.40
2019-06-08T23:02:14.240Z,4.77
2019-06-08T23:04:44.242Z,4.60
2019-06-08T23:07:26.595Z,4.30
2019-06-08T23:09:47.884Z,5.00
2019-06-08T23:12:18.182Z,4.77
2019-06-08T23:14:49.423Z,5.00
2019-06-08T23:17:19.444Z,4.40
2019-06-08T23:19:49.420Z,4.77
2019-06-08T23:22:19.353Z,4.50
2019-06-08T23:24:49.261Z,4.80
2019-06-08T23:27:19.208Z,4.90
2019-06-08T23:29:49.238Z,4.50
2019-06-08T23:32:19.248Z,4.20
2019-06-08T23:34:49.325Z,4.50
2019-06-08T23:37:19.249Z,4.70
2019-06-08T23:39:49.148Z,4.53
2019-06-08T23:42:19.098Z,4.30
2019-06-08T23:44:49.023Z,4.80
2019-06-08T23:47:19.041Z,4.70
2019-06-08T23:49:48.952Z,4.30
2019-06-08T23:52:18.886Z,4.80
2019-06-08T23:54:50.022Z,4.13
2019-06-08T23:57:19.979Z,4.20
2019-06-08T23:59:49.968Z,4.03
